INFORMACIÓN METAR y TAF
METAR FOR VIDP
ADDS - METARS form results

(2048 UTC 13 August 2022)
Data provider http://aviationweather.gov/metar/data/
 
METAR text: VIDP 132030Z 19003KT 4000 BR FEW035 SCT100 30/26 Q1001 NOSIG
Conditions at: VIDP (INDIRA GANDHI/DE, IN) observed 2030 UTC 13 August 2022
Temperature: 30.0°C (86°F)
Dewpoint: 26.0°C (79°F) [RH = 79%]
Pressure (altimeter): 29.56 inches Hg (1001.0 mb)
Winds: from the S (190 degrees) at 3 MPH (3 knots; 1.5 m/s)
Visibility: 2.49 miles (4.01 km)
Ceiling: at least 12,000 feet AGL
Clouds: few clouds at 3500 feet AGL
scattered clouds at 10000 feet AGL
Weather: BR  (mist)

METAR text: VIDP 132000Z 18004KT 4000 BR FEW035 SCT100 30/26 Q1001 NOSIG
Conditions at: VIDP (INDIRA GANDHI/DE, IN) observed 2000 UTC 13 August 2022
Temperature: 30.0°C (86°F)
Dewpoint: 26.0°C (79°F) [RH = 79%]
Pressure (altimeter): 29.56 inches Hg (1001.0 mb)
Winds: from the S (180 degrees) at 5 MPH (4 knots; 2.1 m/s)
Visibility: 2.49 miles (4.01 km)
Ceiling: at least 12,000 feet AGL
Clouds: few clouds at 3500 feet AGL
scattered clouds at 10000 feet AGL
Weather: BR  (mist)

Forecast for: VIDP (INDIRA GANDHI/DE, IN)
Text: TAF VIDP 132000Z 1321/1406 16003KT 3000 BR FEW035 SCT100
Forecast period: 2100 UTC 13 August 2022 to 0400 UTC 14 August 2022
Forecast type: FROM: standard forecast or significant change
Winds: from the SSE (160 degrees) at 3 MPH (3 knots; 1.5 m/s)
Visibility: 1.86 miles (2.99 km)
Ceiling: at least 12,000 feet AGL
Clouds: few clouds at 3500 feet AGL
scattered clouds at 10000 feet AGL
Weather: BR  (mist)
Text: TEMPO 1323/1403 13010G20KT 1500 -TSRA SCT035 FEW040CB BKN100
Forecast period: 2300 UTC 13 August 2022 to 0300 UTC 14 August 2022
Forecast type: TEMPORARY: The following changes expected for less than half the time period
Winds: from the SE (130 degrees) at 12 MPH (10 knots; 5.1 m/s)
gusting to 23 MPH (20 knots; 10.3 m/s)
Visibility: 0.93 miles (1.50 km)
Ceiling: 10000 feet AGL
Clouds: scattered clouds at 3500 feet AGL
few clouds at 4000 feet AGL
broken clouds at 10000 feet AGL
Weather: -TSRA  (light rain associated with thunderstorm(s))
Text: BECMG 1404/1406 14010KT 5000 HZ DZ SCT035 BKN100
Forecast period: 0400 to 0600 UTC 14 August 2022
Forecast type: BECOMING: Conditions expected to become as follows by 0600 UTC 14 August 2022
Winds: from the SE (140 degrees) at 12 MPH (10 knots; 5.1 m/s)
Visibility: 3 miles (5 km)
Ceiling: 10000 feet AGL
Clouds: scattered clouds at 3500 feet AGL
broken clouds at 10000 feet AGL
Weather: HZ DZ  (haze, moderate drizzle)

 MAPA DE AEROPUERTO

 INFORMACIÓN DE PISTA